TimeCET,TemperatureF,Dew PointF,Humidity,Sea Level PressureIn,VisibilityMPH,Wind Direction,Wind SpeedMPH,Gust SpeedMPH,PrecipitationIn,Events,Conditions,WindDirDegrees,DateUTC
12:00 AM,-9999,-9999,N/A,-9999,3.7,North,-9999.0,-,N/A,,Overcast,0,2013-01-22 23:00:00
12:10 AM,30.2,28.4,93,29.71,0.9,NW,8.9,-,N/A,Snow,Light Snow,310,2013-01-22 23:10:00
12:15 AM,-9999,-9999,N/A,29.71,0.9,NW,8.9,-,N/A,,Overcast,310,2013-01-22 23:15:00
12:45 AM,28.4,28.4,100,29.74,0.9,WNW,8.9,-,N/A,Snow,Light Snow,300,2013-01-22 23:45:00
1:15 AM,28.4,28.4,100,29.74,0.9,WNW,4.5,-,N/A,Snow,Light Snow,290,2013-01-23 00:15:00
1:45 AM,28.4,28.4,100,29.74,0.9,WNW,4.5,-,N/A,Snow,Light Snow,290,2013-01-23 00:45:00
2:15 AM,28.4,28.4,100,29.74,0.9,NW,6.7,-,N/A,Snow,Light Snow,310,2013-01-23 01:15:00
2:45 AM,28.4,28.4,100,29.74,0.9,WNW,6.7,-,N/A,Snow,Light Snow,300,2013-01-23 01:45:00
3:15 AM,28.4,28.4,100,29.74,0.9,WNW,6.7,-,N/A,Snow,Light Snow,290,2013-01-23 02:15:00
3:45 AM,26.6,26.6,100,29.74,0.9,WNW,4.5,-,N/A,Snow,Light Snow,290,2013-01-23 02:45:00
4:15 AM,26.6,26.6,100,29.77,0.9,West,2.2,-,N/A,Snow,Light Snow,280,2013-01-23 03:15:00
4:45 AM,26.6,26.6,100,29.77,0.9,WNW,2.2,-,N/A,Snow,Light Snow,300,2013-01-23 03:45:00
5:15 AM,26.6,26.6,100,29.77,0.9,NW,4.5,-,N/A,Snow,Light Snow,310,2013-01-23 04:15:00
5:45 AM,-9999,-9999,N/A,-9999,3.7,Variable,4.5,-,N/A,,Scattered Clouds,0,2013-01-23 04:45:00
6:15 AM,26.6,26.6,100,29.77,0.9,West,2.2,-,N/A,Snow,Light Snow,280,2013-01-23 05:15:00
6:45 AM,26.6,26.6,100,29.77,0.9,WNW,4.5,-,N/A,Snow,Light Snow,290,2013-01-23 05:45:00
7:15 AM,26.6,26.6,100,29.77,1.2,WNW,2.2,-,N/A,Snow,Light Snow,290,2013-01-23 06:15:00
7:45 AM,26.6,26.6,100,29.77,1.6,WNW,2.2,-,N/A,Snow,Light Snow,290,2013-01-23 06:45:00
8:00 AM,26.6,26.6,100,29.80,1.9,WNW,2.2,-,N/A,,Overcast,290,2013-01-23 07:00:00
8:15 AM,26.6,26.6,100,29.80,1.9,WNW,2.2,-,N/A,,Overcast,290,2013-01-23 07:15:00
8:45 AM,-9999,-9999,N/A,-9999,5.0,Variable,4.5,-,N/A,,Overcast,0,2013-01-23 07:45:00
9:15 AM,26.6,24.8,93,29.80,1.9,NW,2.2,-,N/A,,Overcast,320,2013-01-23 08:15:00
9:44 AM,28.4,24.8,86,29.80,1.9,Calm,Calm,-,N/A,,Overcast,0,2013-01-23 08:44:00
9:45 AM,28.4,24.8,86,29.80,1.9,Calm,Calm,-,N/A,,Overcast,0,2013-01-23 08:45:00
10:15 AM,28.4,24.8,86,29.83,1.9,Calm,Calm,-,N/A,,Overcast,0,2013-01-23 09:15:00
10:45 AM,28.4,28.4,100,29.83,1.9,Calm,Calm,-,N/A,,Overcast,0,2013-01-23 09:45:00
11:15 AM,28.4,26.6,93,29.80,1.9,Calm,Calm,-,N/A,,Overcast,0,2013-01-23 10:15:00
11:45 AM,-9999,-9999,N/A,-9999,1.9,Variable,4.5,-,N/A,,Overcast,0,2013-01-23 10:45:00
12:15 PM,30.2,26.6,86,29.80,2.5,Calm,Calm,-,N/A,,Overcast,0,2013-01-23 11:15:00
1:15 PM,30.2,26.6,86,29.80,2.5,Calm,Calm,-,N/A,,Overcast,0,2013-01-23 12:15:00
1:31 PM,30.2,26.6,86,29.80,3.1,NNW,2.2,-,N/A,,Overcast,340,2013-01-23 12:31:00
1:45 PM,32.0,26.6,80,29.80,3.1,Calm,Calm,-,N/A,,Overcast,0,2013-01-23 12:45:00
2:15 PM,30.2,26.6,86,29.80,3.1,NE,2.2,-,N/A,,Overcast,40,2013-01-23 13:15:00
2:45 PM,-9999,-9999,N/A,-9999,3.7,Variable,4.5,-,N/A,,Overcast,0,2013-01-23 13:45:00
3:15 PM,30.2,26.6,86,29.80,3.1,NE,2.2,-,N/A,,Overcast,50,2013-01-23 14:15:00
3:45 PM,32.0,28.4,87,29.80,3.1,NE,2.2,-,N/A,,Overcast,40,2013-01-23 14:45:00
4:15 PM,32.0,28.4,87,29.80,3.1,ENE,2.2,-,N/A,,Overcast,60,2013-01-23 15:15:00
4:45 PM,32.0,28.4,87,29.80,3.1,ENE,2.2,-,N/A,,Overcast,60,2013-01-23 15:45:00
5:15 PM,30.2,30.2,100,29.80,3.1,Calm,Calm,-,N/A,,Overcast,0,2013-01-23 16:15:00
5:45 PM,-9999,-9999,N/A,-9999,3.1,Variable,4.5,-,N/A,,Overcast,0,2013-01-23 16:45:00
6:15 PM,30.2,30.2,100,29.83,3.1,NNE,2.2,-,N/A,,Overcast,30,2013-01-23 17:15:00
6:35 PM,30.2,30.2,100,29.83,1.9,Calm,Calm,-,N/A,,Light Freezing Drizzle,0,2013-01-23 17:35:00
6:45 PM,30.2,30.2,100,29.83,1.9,NE,2.2,-,N/A,,Light Freezing Drizzle,50,2013-01-23 17:45:00
7:15 PM,30.2,30.2,100,29.80,1.9,NE,2.2,-,N/A,,Light Freezing Drizzle,40,2013-01-23 18:15:00
7:38 PM,30.2,30.2,100,29.80,1.2,NNE,2.2,-,N/A,,Overcast,30,2013-01-23 18:38:00
7:45 PM,30.2,30.2,100,29.80,1.2,NNE,2.2,-,N/A,,Overcast,30,2013-01-23 18:45:00
8:15 PM,30.2,30.2,100,29.80,1.2,NE,4.5,-,N/A,,Overcast,40,2013-01-23 19:15:00
8:45 PM,-9999,-9999,N/A,-9999,0.9,Variable,4.5,-,N/A,,Overcast,0,2013-01-23 19:45:00
9:15 PM,30.2,30.2,100,29.80,1.2,NE,4.5,-,N/A,,Overcast,50,2013-01-23 20:15:00
9:45 PM,30.2,30.2,100,29.80,1.2,NE,2.2,-,N/A,,Overcast,40,2013-01-23 20:45:00
10:15 PM,30.2,30.2,100,29.80,1.2,NE,2.2,-,N/A,,Overcast,40,2013-01-23 21:15:00
10:45 PM,30.2,30.2,100,29.80,1.2,ENE,2.2,-,N/A,,Overcast,60,2013-01-23 21:45:00
11:15 PM,30.2,30.2,100,29.80,1.2,ENE,6.7,-,N/A,,Overcast,60,2013-01-23 22:15:00
11:32 PM,30.2,30.2,100,29.80,1.2,ENE,6.7,-,N/A,,Overcast,60,2013-01-23 22:32:00
11:40 PM,-9999,-9999,N/A,-9999,0.9,Variable,4.5,-,N/A,,Overcast,0,2013-01-23 22:40:00
11:45 PM,-9999,-9999,N/A,-9999,0.9,North,-9999.0,-,N/A,,Overcast,0,2013-01-23 22:45:00